Time;durP1;ratioP1;P1;durP2;ratioP2;P2;SDS_P1;SDS_P2;PMS_P1;PMS_P2;Temp;Humidity;BMP_temperature;BMP_pressure;BME280_temperature;BME280_humidity;BME280_pressure;Samples;Min_cycle;Max_cycle;Signal;HPM_P1;HPM_P2
2022/06/12 00:00:30;;;;;;;4.33;3.13;;;;;;;18.05;94.58;100592.16;5044445;28;20173;-66
2022/06/12 00:02:58;;;;;;;3.87;2.90;;;;;;;17.98;96.11;100597.00;5053766;28;20186;-66
2022/06/12 00:05:26;;;;;;;4.13;3.53;;;;;;;17.95;96.51;100597.25;5055045;28;20196;-66
2022/06/12 00:07:51;;;;;;;4.87;3.10;;;;;;;17.90;96.93;100600.16;5054234;28;20641;-65
2022/06/12 00:10:17;;;;;;;6.10;3.13;;;;;;;17.90;97.44;100599.34;5043965;28;20177;-67
2022/06/12 00:12:44;;;;;;;5.23;3.10;;;;;;;17.93;96.69;100598.28;5054005;28;20197;-67
2022/06/12 00:15:14;;;;;;;3.40;3.03;;;;;;;17.76;97.87;100603.00;5051417;28;20232;-65
2022/06/12 00:17:41;;;;;;;5.57;3.13;;;;;;;17.78;98.07;100600.31;5052653;28;20228;-66
2022/06/12 00:20:07;;;;;;;3.27;2.87;;;;;;;17.65;99.31;100601.25;5044856;28;20185;-67
2022/06/12 00:22:33;;;;;;;4.13;3.07;;;;;;;17.59;100.00;100593.91;5053301;28;20178;-66
2022/06/12 00:24:58;;;;;;;4.97;2.90;;;;;;;17.48;100.00;100599.91;5053241;28;20189;-66
2022/06/12 00:27:23;;;;;;;4.07;2.47;;;;;;;17.34;100.00;100593.16;5052533;28;20174;-65
2022/06/12 00:29:50;;;;;;;4.53;2.80;;;;;;;17.41;100.00;100599.56;5053983;28;20359;-66
2022/06/12 00:32:16;;;;;;;3.43;2.83;;;;;;;17.47;100.00;100597.44;5027299;28;20228;-67
2022/06/12 00:34:46;;;;;;;11.00;9.43;;;;;;;17.40;100.00;100602.25;5053127;28;20280;-67
2022/06/12 00:37:13;;;;;;;4.13;3.47;;;;;;;17.43;100.00;100604.63;5052425;28;20182;-66
2022/06/12 00:39:40;;;;;;;4.07;2.77;;;;;;;17.49;100.00;100601.56;5052663;28;20181;-66
2022/06/12 00:42:07;;;;;;;7.57;3.20;;;;;;;17.46;99.36;100598.38;5028719;28;20651;-66
2022/06/12 00:44:38;;;;;;;5.37;2.80;;;;;;;17.33;100.00;100595.84;5053879;28;20192;-66
2022/06/12 00:47:08;;;;;;;4.70;2.83;;;;;;;17.37;100.00;100598.13;5053907;28;20174;-67
2022/06/12 00:49:39;;;;;;;5.47;3.40;;;;;;;17.30;100.00;100596.09;5052280;28;20284;-66
2022/06/12 00:52:10;;;;;;;4.53;2.60;;;;;;;17.32;100.00;100591.63;5041670;28;20672;-67
2022/06/12 00:54:39;;;;;;;3.23;2.63;;;;;;;17.31;99.79;100597.75;5042204;28;20648;-67
2022/06/12 00:57:06;;;;;;;2.53;2.33;;;;;;;17.30;99.48;100599.53;5053152;28;20200;-66
2022/06/12 00:59:46;;;;;;;3.10;2.80;;;;;;;17.23;98.95;100600.94;5051984;28;20728;-66
2022/06/12 01:02:16;;;;;;;4.10;2.87;;;;;;;17.23;99.97;100596.56;5042553;28;20252;-67
2022/06/12 01:07:32;;;;;;;5.73;2.73;;;;;;;17.16;100.00;100605.75;5044541;28;20201;-66
2022/06/12 01:10:01;;;;;;;4.20;3.23;;;;;;;17.14;99.47;100604.22;5042235;28;20197;-66
2022/06/12 01:12:31;;;;;;;5.83;2.60;;;;;;;17.21;97.95;100603.63;5023077;28;20692;-66
2022/06/12 01:15:02;;;;;;;4.97;2.60;;;;;;;17.14;98.40;100594.66;5049597;28;20209;-66
2022/06/12 01:17:29;;;;;;;3.50;2.60;;;;;;;17.00;99.95;100600.03;5051286;28;20225;-66
2022/06/12 01:19:58;;;;;;;5.07;2.57;;;;;;;16.99;100.00;100598.38;5052870;28;20177;-66
2022/06/12 01:22:46;;;;;;;3.07;2.40;;;;;;;16.83;100.00;100594.28;5042741;28;20226;-66
2022/06/12 01:25:26;;;;;;;5.67;2.50;;;;;;;16.77;100.00;100600.75;5041652;28;20205;-66
2022/06/12 01:28:12;;;;;;;3.20;2.60;;;;;;;16.74;100.00;100593.16;5052759;28;20213;-66
2022/06/12 01:30:56;;;;;;;4.40;2.23;;;;;;;16.82;100.00;100595.22;5043087;28;20386;-66
2022/06/12 01:33:31;;;;;;;6.40;2.57;;;;;;;16.74;100.00;100598.34;5052578;28;20213;-66
2022/06/12 01:36:08;;;;;;;2.80;2.00;;;;;;;16.79;99.86;100598.03;5053114;28;20169;-66
2022/06/12 01:38:50;;;;;;;4.73;2.37;;;;;;;16.78;99.34;100594.63;5053097;28;20644;-66
2022/06/12 01:41:34;;;;;;;3.27;2.40;;;;;;;16.80;99.37;100594.50;5042347;28;20747;-66
2022/06/12 01:44:42;;;;;;;4.23;2.20;;;;;;;16.74;98.98;100595.75;5052777;28;20705;-66
2022/06/12 01:47:43;;;;;;;4.07;2.53;;;;;;;16.66;99.57;100590.31;5052360;28;20284;-67
2022/06/12 01:50:44;;;;;;;4.17;2.20;;;;;;;16.59;100.00;100594.28;5000596;28;20206;-66
2022/06/12 01:53:24;;;;;;;3.87;2.50;;;;;;;16.63;100.00;100587.94;4932974;29;20225;-66
2022/06/12 01:56:17;;;;;;;4.27;2.53;;;;;;;16.65;99.71;100598.22;4933186;29;20228;-66
2022/06/12 01:58:56;;;;;;;4.90;2.57;;;;;;;16.58;100.00;100590.03;4933538;29;20189;-66
2022/06/12 02:01:25;;;;;;;3.13;2.20;;;;;;;16.55;100.00;100592.88;4923446;28;20316;-66
2022/06/12 02:04:06;;;;;;;2.87;2.30;;;;;;;16.55;100.00;100600.66;4932928;29;20305;-66
2022/06/12 02:06:45;;;;;;;4.03;2.10;;;;;;;16.41;100.00;100589.47;4932721;29;20756;-67
2022/06/12 02:09:17;;;;;;;2.47;2.23;;;;;;;16.42;100.00;100585.97;4936715;29;20209;-66
2022/06/12 02:14:49;;;;;;;3.17;2.50;;;;;;;16.34;100.00;100595.22;4933002;29;20261;-66
2022/06/12 02:17:22;;;;;;;2.50;2.03;;;;;;;16.35;100.00;100582.13;4932767;29;20276;-66
2022/06/12 02:19:49;;;;;;;2.43;1.83;;;;;;;16.39;100.00;100588.75;4932705;29;20201;-66
2022/06/12 02:22:20;;;;;;;4.00;2.20;;;;;;;16.27;100.00;100587.03;4923280;28;20233;-66
2022/06/12 02:24:51;;;;;;;3.57;2.20;;;;;;;16.29;100.00;100585.97;4916876;29;20256;-66
2022/06/12 02:27:25;;;;;;;3.93;2.10;;;;;;;16.34;100.00;100585.66;4929705;29;20224;-67
2022/06/12 02:29:59;;;;;;;3.13;2.50;;;;;;;16.25;100.00;100587.16;5014229;28;20758;-66
2022/06/12 02:32:34;;;;;;;12.33;2.47;;;;;;;16.14;100.00;100590.50;5021479;28;20256;-66
2022/06/12 02:35:08;;;;;;;2.57;2.37;;;;;;;16.21;100.00;100592.66;5050746;28;20185;-66
2022/06/12 02:37:40;;;;;;;4.23;2.73;;;;;;;16.23;100.00;100596.78;5051704;28;20196;-65
2022/06/12 02:40:12;;;;;;;7.87;2.93;;;;;;;16.16;100.00;100589.56;5045555;28;20268;-66
2022/06/12 02:42:43;;;;;;;4.60;2.40;;;;;;;16.11;100.00;100595.06;5034652;28;20327;-66
2022/06/12 02:45:14;;;;;;;6.40;2.57;;;;;;;16.14;100.00;100589.66;5050175;28;20207;-65
2022/06/12 02:47:41;;;;;;;5.20;2.47;;;;;;;16.04;100.00;100597.28;5051329;28;20177;-66
2022/06/12 02:50:08;;;;;;;5.30;2.97;;;;;;;16.08;100.00;100596.09;5041173;28;20201;-66
2022/06/12 02:52:43;;;;;;;3.23;2.93;;;;;;;16.03;100.00;100593.00;5029258;28;20277;-65
2022/06/12 02:55:20;;;;;;;5.37;3.13;;;;;;;16.00;100.00;100592.38;5042971;28;20231;-65
2022/06/12 02:58:11;;;;;;;4.67;3.00;;;;;;;15.94;100.00;100598.84;5049305;28;20958;-65
2022/06/12 03:00:43;;;;;;;4.40;2.87;;;;;;;15.85;100.00;100602.91;5030770;28;20271;-66
2022/06/12 03:03:20;;;;;;;6.33;2.60;;;;;;;15.84;100.00;100605.59;5044162;28;20201;-66
2022/06/12 03:05:50;;;;;;;2.97;2.63;;;;;;;15.83;100.00;100607.38;5049202;28;20848;-67
2022/06/12 03:08:21;;;;;;;4.33;2.77;;;;;;;15.64;100.00;100613.78;5044505;28;20719;-66
2022/06/12 03:10:51;;;;;;;4.57;2.63;;;;;;;15.74;100.00;100613.13;5041529;28;20283;-66
2022/06/12 03:13:18;;;;;;;4.30;2.40;;;;;;;15.78;100.00;100612.84;5050082;28;20197;-66
2022/06/12 03:15:48;;;;;;;6.10;3.03;;;;;;;15.68;100.00;100613.56;5040443;28;20287;-66
2022/06/12 03:18:18;;;;;;;6.13;3.23;;;;;;;15.62;100.00;100612.22;5049894;28;20296;-66
2022/06/12 03:21:02;;;;;;;3.83;2.50;;;;;;;15.62;100.00;100613.03;5040476;28;20229;-65
2022/06/12 03:23:42;;;;;;;5.17;2.90;;;;;;;15.71;100.00;100624.56;5041103;28;20514;-66
2022/06/12 03:26:16;;;;;;;7.77;2.90;;;;;;;15.77;100.00;100618.94;5050582;28;20300;-66
2022/06/12 03:29:07;;;;;;;6.60;2.47;;;;;;;15.69;100.00;100620.41;5051297;28;20197;-65
2022/06/12 03:31:37;;;;;;;3.50;2.37;;;;;;;15.69;100.00;100634.22;5010360;28;20382;-65
2022/06/12 03:34:25;;;;;;;3.50;2.70;;;;;;;15.68;100.00;100636.91;5051062;28;20212;-66
2022/06/12 03:36:59;;;;;;;3.63;2.77;;;;;;;15.70;100.00;100640.22;5049144;28;20613;-66
2022/06/12 03:39:39;;;;;;;5.63;2.83;;;;;;;15.61;100.00;100639.09;5049413;28;20201;-66
2022/06/12 03:42:41;;;;;;;3.40;2.63;;;;;;;15.45;100.00;100640.09;5039328;28;20221;-65
2022/06/12 03:45:12;;;;;;;3.07;2.23;;;;;;;15.35;100.00;100635.63;5049502;28;20192;-66
2022/06/12 03:47:54;;;;;;;4.87;2.73;;;;;;;15.27;100.00;100636.13;5050774;28;20180;-66
2022/06/12 03:50:29;;;;;;;6.30;2.67;;;;;;;15.33;100.00;100636.56;5040574;28;20279;-66
2022/06/12 03:52:58;;;;;;;3.07;2.23;;;;;;;15.47;100.00;100635.66;5028806;28;20196;-66
2022/06/12 03:58:33;;;;;;;5.93;2.70;;;;;;;15.59;100.00;100638.34;5051031;28;20199;-65
2022/06/12 04:01:00;;;;;;;3.33;2.10;;;;;;;15.80;100.00;100631.72;5035167;28;20224;-67
2022/06/12 04:03:33;;;;;;;4.60;2.67;;;;;;;16.01;100.00;100636.38;5039438;28;20248;-66
2022/06/12 04:06:14;;;;;;;5.03;2.70;;;;;;;16.12;100.00;100635.66;5048372;28;20187;-66
2022/06/12 04:08:44;;;;;;;5.90;2.07;;;;;;;16.31;100.00;100640.41;5050639;28;20189;-67
2022/06/12 04:11:12;;;;;;;3.07;2.00;;;;;;;16.32;100.00;100636.84;5040236;28;20284;-66
2022/06/12 04:13:40;;;;;;;2.60;2.20;;;;;;;16.33;100.00;100640.28;5042361;28;20520;-66
2022/06/12 04:16:24;;;;;;;6.80;2.50;;;;;;;16.30;100.00;100647.34;5049892;28;20588;-66
2022/06/12 04:18:50;;;;;;;5.60;2.70;;;;;;;16.34;100.00;100640.19;5051062;28;20795;-66
2022/06/12 04:21:22;;;;;;;6.70;2.90;;;;;;;16.34;100.00;100636.75;5040214;28;20259;-66
2022/06/12 04:24:07;;;;;;;4.40;2.33;;;;;;;16.40;100.00;100637.16;5046413;28;20185;-66
2022/06/12 04:26:38;;;;;;;4.90;2.73;;;;;;;16.66;100.00;100639.66;5050034;28;20197;-66
2022/06/12 04:29:18;;;;;;;3.47;2.47;;;;;;;16.74;100.00;100644.31;5050608;28;20702;-66
2022/06/12 04:31:47;;;;;;;3.13;2.63;;;;;;;16.77;100.00;100634.53;5040055;28;20228;-66
2022/06/12 04:34:28;;;;;;;2.10;1.83;;;;;;;16.91;100.00;100635.28;5051053;28;20182;-67
2022/06/12 04:37:01;;;;;;;5.00;3.10;;;;;;;17.07;100.00;100633.25;5052533;28;20166;-66
2022/06/12 04:39:33;;;;;;;3.67;2.90;;;;;;;17.15;100.00;100629.28;5054101;28;20209;-67
2022/06/12 04:42:00;;;;;;;4.20;2.30;;;;;;;17.32;100.00;100638.44;5029761;28;20225;-66
2022/06/12 04:44:25;;;;;;;4.07;2.20;;;;;;;17.46;100.00;100642.59;5053939;28;20182;-66
2022/06/12 04:46:53;;;;;;;4.07;2.43;;;;;;;17.62;98.61;100635.28;5054146;28;20193;-66
2022/06/12 04:49:21;;;;;;;4.73;2.70;;;;;;;17.67;98.36;100640.94;5054212;28;20234;-66
2022/06/12 04:51:48;;;;;;;4.90;2.60;;;;;;;17.93;96.71;100639.91;5043262;28;20227;-66
2022/06/12 04:54:16;;;;;;;5.53;2.43;;;;;;;18.13;94.99;100641.00;5039714;28;20540;-67
2022/06/12 04:56:42;;;;;;;4.83;2.80;;;;;;;18.29;93.34;100638.03;5053369;28;20503;-66
2022/06/12 04:59:08;;;;;;;6.37;2.83;;;;;;;18.45;91.80;100648.06;5053702;28;20548;-67
2022/06/12 05:01:33;;;;;;;5.47;3.03;;;;;;;18.62;91.05;100644.09;5040413;28;20235;-67
2022/06/12 05:04:01;;;;;;;5.50;2.63;;;;;;;18.65;91.44;100642.09;5040221;28;20180;-67
2022/06/12 05:06:27;;;;;;;9.20;2.60;;;;;;;18.81;91.23;100651.28;5053152;28;20216;-67
2022/06/12 05:08:52;;;;;;;6.20;2.27;;;;;;;19.00;90.27;100648.88;5052393;28;20197;-67
2022/06/12 05:11:18;;;;;;;4.90;1.90;;;;;;;19.12;90.06;100646.22;5034736;28;20557;-67
2022/06/12 05:13:44;;;;;;;4.73;2.13;;;;;;;19.23;90.12;100650.56;5053049;28;20182;-68
2022/06/12 05:16:36;;;;;;;5.83;2.40;;;;;;;19.31;89.48;100645.50;5053097;28;20178;-67
2022/06/12 05:19:04;;;;;;;4.43;2.47;;;;;;;19.27;89.97;100646.72;5052963;28;20216;-68
2022/06/12 05:21:30;;;;;;;3.20;2.00;;;;;;;19.52;89.27;100646.34;5042019;28;20217;-68
2022/06/12 05:23:56;;;;;;;3.87;1.87;;;;;;;19.66;87.74;100642.56;5047870;28;20189;-68
2022/06/12 05:26:22;;;;;;;3.83;2.13;;;;;;;19.93;86.09;100636.00;5052913;28;20197;-68
2022/06/12 05:28:47;;;;;;;5.57;2.40;;;;;;;20.18;82.43;100635.66;5051909;28;20231;-68
2022/06/12 05:31:13;;;;;;;3.80;2.30;;;;;;;20.36;79.75;100641.06;5035584;28;20237;-67
2022/06/12 05:33:39;;;;;;;5.13;2.17;;;;;;;20.49;77.74;100641.63;5044557;28;20295;-67
2022/06/12 05:36:06;;;;;;;4.17;2.10;;;;;;;20.75;77.72;100635.91;5052824;28;20302;-67
2022/06/12 05:38:31;;;;;;;5.80;2.43;;;;;;;20.77;74.33;100642.66;5051823;28;20280;-68
2022/06/12 05:40:56;;;;;;;4.07;2.30;;;;;;;20.88;73.59;100646.94;5042649;28;20308;-68
2022/06/12 05:43:22;;;;;;;6.87;2.50;;;;;;;20.57;71.75;100641.78;5042491;28;20260;-68
2022/06/12 05:45:47;;;;;;;6.23;2.47;;;;;;;20.88;71.80;100643.50;5052543;28;20611;-67
2022/06/12 05:48:16;;;;;;;4.67;2.77;;;;;;;21.18;68.70;100645.13;5052367;28;20539;-67
2022/06/12 05:50:52;;;;;;;5.17;1.97;;;;;;;21.17;67.25;100640.03;5043015;28;20579;-67
2022/06/12 05:53:19;;;;;;;5.20;2.10;;;;;;;21.30;67.07;100643.19;5030373;28;20173;-67
2022/06/12 05:55:45;;;;;;;5.10;2.30;;;;;;;21.73;66.60;100651.50;5049892;28;20644;-66
2022/06/12 05:58:11;;;;;;;5.40;2.37;;;;;;;21.94;63.96;100651.28;5052334;28;20181;-67
2022/06/12 06:00:37;;;;;;;5.03;2.40;;;;;;;22.49;61.65;100649.63;5041566;28;20228;-68
2022/06/12 06:03:02;;;;;;;4.77;2.30;;;;;;;22.77;59.48;100646.94;5063817;28;20533;-68
2022/06/12 06:05:28;;;;;;;4.53;2.20;;;;;;;23.71;57.40;100642.88;5051040;28;20184;-68
2022/06/12 06:07:53;;;;;;;9.13;3.03;;;;;;;25.26;51.71;100643.38;5050695;28;20173;-68
2022/06/12 06:10:25;;;;;;;5.50;2.07;;;;;;;26.26;46.54;100651.81;5042652;28;20205;-68
2022/06/12 06:12:50;;;;;;;6.70;1.83;;;;;;;26.62;44.35;100650.44;5051571;28;20182;-68
2022/06/12 06:15:16;;;;;;;4.90;1.90;;;;;;;27.41;42.94;100650.13;5052429;28;20217;-67
2022/06/12 06:17:42;;;;;;;6.47;2.50;;;;;;;26.81;43.06;100659.72;5051487;28;20236;-67
2022/06/12 06:20:10;;;;;;;3.85;1.75;;;;;;;28.09;41.04;100652.66;5042236;28;20185;-68
2022/06/12 06:22:35;;;;;;;5.22;2.13;;;;;;;28.03;40.41;100658.66;5035443;28;20184;-68
2022/06/12 06:25:01;;;;;;;7.38;2.08;;;;;;;28.98;38.25;100662.09;5052350;28;20185;-67
2022/06/12 06:27:26;;;;;;;7.03;2.00;;;;;;;30.30;36.29;100665.88;5051608;28;20548;-67
2022/06/12 06:29:51;;;;;;;2.67;1.70;;;;;;;30.53;35.04;100668.22;5050745;28;20200;-67
2022/06/12 06:32:17;;;;;;;2.95;1.75;;;;;;;28.39;38.60;100664.97;5025369;28;20228;-68
2022/06/12 06:34:42;;;;;;;4.72;2.20;;;;;;;29.71;36.83;100662.81;5051967;28;20200;-68
2022/06/12 06:37:09;;;;;;;4.35;1.70;;;;;;;28.00;39.41;100656.38;5051663;28;20188;-68
2022/06/12 06:39:35;;;;;;;5.38;1.77;;;;;;;29.50;36.68;100658.38;5051810;28;20181;-68
2022/06/12 06:42:01;;;;;;;6.45;2.38;;;;;;;29.63;36.45;100666.41;5041198;28;20595;-68
2022/06/12 06:47:11;;;;;;;7.00;2.22;;;;;;;30.41;34.61;100667.94;5038561;28;20735;-67
2022/06/12 06:49:36;;;;;;;5.80;2.30;;;;;;;31.92;32.92;100668.25;5051618;28;20295;-67
2022/06/12 06:52:01;;;;;;;4.03;2.05;;;;;;;32.70;30.99;100671.72;5026834;28;20314;-68
2022/06/12 06:54:27;;;;;;;5.45;2.10;;;;;;;32.55;31.48;100668.53;5042554;28;20323;-66
2022/06/12 06:56:53;;;;;;;4.43;1.83;;;;;;;34.00;28.99;100668.38;5046916;28;20545;-67
2022/06/12 06:59:18;;;;;;;3.53;1.85;;;;;;;34.98;28.11;100677.00;5049571;28;20196;-69
2022/06/12 07:01:44;;;;;;;5.63;2.40;;;;;;;35.10;27.36;100671.66;5030512;28;20229;-68
2022/06/12 07:04:10;;;;;;;2.35;1.63;;;;;;;35.85;26.28;100669.22;5039005;28;20180;-69
2022/06/12 07:06:36;;;;;;;7.68;2.10;;;;;;;36.46;25.23;100672.19;5051429;28;20265;-68
2022/06/12 07:09:02;;;;;;;5.40;1.98;;;;;;;34.77;27.76;100666.84;5037270;28;20316;-68
2022/06/12 07:11:27;;;;;;;2.65;1.63;;;;;;;34.36;28.32;100661.31;5031427;28;20232;-69
2022/06/12 07:13:56;;;;;;;6.60;2.28;;;;;;;34.36;28.47;100659.50;5044707;28;20186;-67
2022/06/12 07:16:22;;;;;;;3.55;1.83;;;;;;;34.79;27.83;100662.09;5039767;28;20283;-69
2022/06/12 07:18:47;;;;;;;5.57;1.80;;;;;;;36.54;25.26;100654.09;5050832;28;20669;-68
2022/06/12 07:21:14;;;;;;;4.25;2.00;;;;;;;36.63;24.76;100664.16;5040972;28;20279;-69
2022/06/12 07:23:40;;;;;;;2.78;1.70;;;;;;;37.25;23.63;100665.06;5050570;28;20186;-68
2022/06/12 07:26:09;;;;;;;5.07;1.85;;;;;;;38.09;22.60;100663.13;5050349;28;20201;-69
2022/06/12 07:28:37;;;;;;;4.40;1.92;;;;;;;37.08;24.17;100672.34;5050996;28;20201;-68
2022/06/12 07:31:05;;;;;;;3.75;1.60;;;;;;;37.62;22.65;100666.34;5014199;28;20283;-69
2022/06/12 07:33:31;;;;;;;4.10;1.77;;;;;;;37.13;23.04;100670.53;5050191;28;20181;-68
2022/06/12 07:35:56;;;;;;;6.88;1.95;;;;;;;38.64;21.70;100670.28;5050642;28;20200;-68
2022/06/12 07:38:24;;;;;;;5.13;1.88;;;;;;;38.17;22.08;100663.69;5049153;28;20189;-67
2022/06/12 07:40:54;;;;;;;3.75;1.92;;;;;;;38.70;21.66;100671.94;5040186;28;20225;-68
2022/06/12 07:43:19;;;;;;;4.40;2.05;;;;;;;38.37;21.58;100671.16;5050269;28;20637;-68
2022/06/12 07:45:46;;;;;;;4.53;2.10;;;;;;;38.49;22.02;100665.59;5051154;28;20193;-67
2022/06/12 07:48:12;;;;;;;3.45;1.70;;;;;;;39.23;21.73;100667.44;5049043;28;20218;-68
2022/06/12 07:50:41;;;;;;;4.00;2.17;;;;;;;38.95;21.14;100663.25;5040493;28;20229;-67
2022/06/12 07:53:06;;;;;;;4.03;1.95;;;;;;;38.56;21.20;100660.81;5040355;28;20246;-68
2022/06/12 07:55:32;;;;;;;5.85;1.98;;;;;;;35.25;24.66;100654.31;5039933;28;20231;-69
2022/06/12 07:57:57;;;;;;;4.65;2.15;;;;;;;37.21;23.46;100657.75;5039814;28;20177;-67
2022/06/12 08:00:24;;;;;;;7.15;2.03;;;;;;;38.58;22.49;100658.69;5041065;28;20199;-70
2022/06/12 08:02:49;;;;;;;5.78;1.92;;;;;;;39.70;20.59;100670.34;5049765;28;20212;-67
2022/06/12 08:05:17;;;;;;;4.05;1.83;;;;;;;39.64;20.80;100663.28;5050929;28;20193;-68
2022/06/12 08:07:43;;;;;;;4.22;1.75;;;;;;;38.82;21.40;100659.13;5048701;28;20196;-68
2022/06/12 08:10:10;;;;;;;3.92;1.80;;;;;;;38.81;20.46;100664.78;5040947;28;20193;-68
2022/06/12 08:12:38;;;;;;;3.95;1.88;;;;;;;38.84;21.44;100662.38;5035788;28;20270;-69
2022/06/12 08:15:10;;;;;;;4.40;2.13;;;;;;;38.56;21.49;100656.25;5053378;28;20192;-68
2022/06/12 08:17:35;;;;;;;4.75;2.10;;;;;;;39.57;20.91;100655.47;5053997;28;20221;-68
2022/06/12 08:22:45;;;;;;;2.97;1.60;;;;;;;40.20;20.50;100659.91;5028712;28;20242;-66
2022/06/12 08:25:10;;;;;;;4.40;2.05;;;;;;;40.64;19.63;100664.75;5054250;28;20186;-67
2022/06/12 08:27:36;;;;;;;4.07;1.70;;;;;;;40.90;19.23;100658.50;5052478;28;20941;-69
2022/06/12 08:30:03;;;;;;;3.13;1.70;;;;;;;40.56;19.67;100665.31;5054181;28;20237;-67
2022/06/12 08:32:29;;;;;;;5.22;1.63;;;;;;;38.41;21.36;100662.31;5026645;28;20244;-67
2022/06/12 08:35:00;;;;;;;4.50;1.88;;;;;;;36.39;23.72;100652.78;5052916;28;20185;-67
2022/06/12 08:37:30;;;;;;;4.57;2.20;;;;;;;35.75;23.92;100659.13;5053751;28;20621;-67
2022/06/12 08:39:57;;;;;;;4.57;1.90;;;;;;;36.13;23.87;100648.84;5054429;28;20177;-68
2022/06/12 08:42:31;;;;;;;4.70;1.80;;;;;;;36.41;23.19;100647.19;5026572;28;20229;-68
2022/06/12 08:45:18;;;;;;;4.97;1.98;;;;;;;36.01;23.83;100644.38;5053902;28;20184;-68
2022/06/12 08:47:52;;;;;;;4.80;1.88;;;;;;;36.89;22.89;100635.09;5052048;28;20259;-67
2022/06/12 08:50:47;;;;;;;4.32;2.05;;;;;;;37.45;22.71;100645.75;5042016;28;20660;-68
2022/06/12 08:53:32;;;;;;;5.07;1.50;;;;;;;37.44;23.11;100640.66;5045032;28;20235;-68
2022/06/12 08:56:05;;;;;;;4.45;1.38;;;;;;;37.42;22.62;100640.09;5049482;28;20268;-67
2022/06/12 08:58:41;;;;;;;4.22;1.77;;;;;;;37.42;22.82;100632.03;5054363;28;20205;-67
2022/06/12 09:01:07;;;;;;;4.43;2.00;;;;;;;37.75;21.91;100628.38;5042654;28;20228;-68
2022/06/12 09:03:38;;;;;;;3.72;1.83;;;;;;;37.50;21.71;100623.56;5053194;28;20182;-67
2022/06/12 09:06:14;;;;;;;3.90;1.85;;;;;;;36.83;22.71;100628.03;5053161;28;20178;-68
2022/06/12 09:08:48;;;;;;;7.15;1.42;;;;;;;37.71;22.68;100623.75;5053828;28;20192;-68
2022/06/12 09:11:33;;;;;;;2.33;1.40;;;;;;;35.69;24.50;100612.72;5043039;28;20276;-68
2022/06/12 09:14:13;;;;;;;3.17;1.70;;;;;;;36.49;23.94;100615.47;5048024;28;20201;-67
2022/06/12 09:17:06;;;;;;;6.07;1.70;;;;;;;35.75;24.05;100612.81;5039363;28;20209;-68
2022/06/12 09:19:39;;;;;;;3.70;1.58;;;;;;;34.67;25.04;100612.16;5011033;28;20289;-67
2022/06/12 09:22:14;;;;;;;4.18;1.55;;;;;;;34.88;25.31;100615.31;5000390;28;20321;-67
2022/06/12 09:25:00;;;;;;;4.80;1.65;;;;;;;36.14;24.43;100604.97;5009116;28;20199;-66
2022/06/12 09:27:39;;;;;;;3.95;1.70;;;;;;;36.22;24.41;100609.94;5010929;28;20179;-67
2022/06/12 09:30:36;;;;;;;3.65;1.77;;;;;;;38.55;21.61;100611.66;4995376;28;20210;-68
2022/06/12 09:33:23;;;;;;;4.25;1.60;;;;;;;38.05;21.93;100599.41;5006806;28;20195;-67
2022/06/12 09:36:08;;;;;;;3.03;1.40;;;;;;;38.95;21.83;100601.41;5010803;28;20200;-67
2022/06/12 09:39:11;;;;;;;3.38;1.70;;;;;;;39.08;20.87;100607.38;5003894;28;20198;-66
2022/06/12 09:41:55;;;;;;;3.33;1.35;;;;;;;36.45;22.98;100600.94;5001106;28;20693;-66
2022/06/12 09:44:32;;;;;;;2.92;1.60;;;;;;;37.35;22.40;100597.38;4993176;28;20199;-67
2022/06/12 09:47:11;;;;;;;4.78;1.67;;;;;;;37.06;21.85;100602.88;4989996;28;20730;-67
2022/06/12 09:50:07;;;;;;;2.60;1.40;;;;;;;37.03;22.03;100589.97;5009686;28;20225;-67
2022/06/12 09:52:53;;;;;;;5.90;1.70;;;;;;;36.73;22.60;100591.16;4977609;28;20305;-67
2022/06/12 09:55:22;;;;;;;2.50;1.60;;;;;;;36.56;22.07;100583.16;5028419;28;20616;-67
2022/06/12 09:57:51;;;;;;;3.30;1.30;;;;;;;38.18;21.54;100588.25;5064519;28;20193;-66
2022/06/12 10:00:26;;;;;;;2.85;1.70;;;;;;;36.89;21.77;100580.66;5042230;28;20219;-66
2022/06/12 10:03:10;;;;;;;4.93;1.50;;;;;;;37.77;21.33;100577.94;5051575;28;20223;-67
2022/06/12 10:05:46;;;;;;;5.85;1.90;;;;;;;37.64;21.43;100578.34;5052629;28;20629;-69
2022/06/12 10:08:25;;;;;;;3.33;1.45;;;;;;;35.16;23.71;100569.13;5050267;28;20655;-67
2022/06/12 10:11:02;;;;;;;3.42;1.55;;;;;;;35.07;24.19;100570.56;5042318;28;20236;-67
2022/06/12 10:13:37;;;;;;;2.42;1.50;;;;;;;34.10;24.92;100565.38;5042319;28;20274;-67
2022/06/12 10:16:10;;;;;;;3.53;1.52;;;;;;;36.10;23.63;100571.69;5052136;28;20184;-66
2022/06/12 10:18:41;;;;;;;4.93;1.88;;;;;;;38.32;21.21;100577.06;5052541;28;20233;-67
2022/06/12 10:21:15;;;;;;;4.15;1.50;;;;;;;38.98;20.77;100573.97;5035625;28;20248;-67
2022/06/12 10:23:40;;;;;;;3.72;1.83;;;;;;;37.82;21.18;100569.13;5051578;28;20178;-66
2022/06/12 10:26:26;;;;;;;5.90;2.13;;;;;;;34.78;24.52;100569.63;5051577;28;20955;-67
2022/06/12 10:29:11;;;;;;;7.45;1.98;;;;;;;34.17;26.45;100561.78;5051068;28;20201;-67
2022/06/12 10:31:54;;;;;;;5.65;1.83;;;;;;;34.74;25.61;100561.25;5030982;28;20588;-67
2022/06/12 10:34:23;;;;;;;3.10;1.70;;;;;;;33.10;27.26;100558.66;5052016;28;20185;-67
2022/06/12 10:36:48;;;;;;;3.90;1.77;;;;;;;33.03;27.93;100552.56;5050153;28;20470;-67
2022/06/12 10:39:15;;;;;;;6.05;2.10;;;;;;;34.17;25.75;100551.91;5052067;28;20192;-67
2022/06/12 10:41:49;;;;;;;2.95;1.65;;;;;;;34.06;26.89;100553.53;5030171;28;20225;-66
2022/06/12 10:44:39;;;;;;;3.83;1.92;;;;;;;31.89;28.38;100550.81;5048368;28;20186;-67
2022/06/12 10:47:15;;;;;;;3.05;1.60;;;;;;;30.70;29.99;100538.53;5035125;28;20564;-67
2022/06/12 10:49:41;;;;;;;4.07;1.58;;;;;;;30.67;31.25;100539.75;5050274;28;20703;-66
2022/06/12 10:52:14;;;;;;;4.97;2.03;;;;;;;30.31;32.93;100532.19;5039377;28;20225;-67
2022/06/12 10:54:40;;;;;;;4.80;1.85;;;;;;;30.46;32.84;100535.44;5040573;28;20260;-67
2022/06/12 10:57:30;;;;;;;5.53;1.90;;;;;;;30.68;32.30;100525.47;5049619;28;20187;-67
2022/06/12 11:00:03;;;;;;;3.05;1.52;;;;;;;30.39;32.61;100521.38;5051836;28;20185;-67
2022/06/12 11:02:54;;;;;;;2.65;1.60;;;;;;;29.76;34.22;100520.66;5029174;28;20221;-67
2022/06/12 11:05:45;;;;;;;5.03;1.58;;;;;;;28.64;35.17;100507.47;5051751;28;20633;-66
2022/06/12 11:08:38;;;;;;;5.00;2.05;;;;;;;29.01;35.25;100507.28;5039964;28;20666;-67
2022/06/12 11:11:18;;;;;;;3.45;1.48;;;;;;;29.13;34.69;100505.72;5041127;28;20304;-67
2022/06/12 11:14:03;;;;;;;2.92;2.08;;;;;;;28.48;34.84;100508.56;5050462;28;20185;-67
2022/06/12 11:16:47;;;;;;;6.28;4.03;;;;;;;27.94;35.70;100506.44;5016935;28;20632;-66
2022/06/12 11:19:15;;;;;;;4.55;2.30;;;;;;;28.27;36.04;100505.94;5050968;28;20224;-66
2022/06/12 11:22:23;;;;;;;3.00;1.63;;;;;;;27.99;36.01;100501.41;5040038;28;20236;-67
2022/06/12 11:25:15;;;;;;;5.22;1.90;;;;;;;28.22;36.15;100492.47;5027582;28;20362;-67
2022/06/12 11:27:46;;;;;;;3.45;1.98;;;;;;;28.30;35.47;100489.72;4986005;28;20734;-67
2022/06/12 11:30:57;;;;;;;4.25;1.70;;;;;;;28.42;35.29;100485.53;4944012;28;20643;-67
2022/06/12 11:33:46;;;;;;;4.32;1.60;;;;;;;27.50;36.24;100479.13;4960802;28;20304;-67
2022/06/12 11:36:18;;;;;;;4.40;1.60;;;;;;;27.54;36.80;100480.41;4959361;28;20192;-67
2022/06/12 11:38:53;;;;;;;3.35;1.50;;;;;;;27.98;36.85;100484.75;4989417;28;20208;-67
2022/06/12 11:41:31;;;;;;;3.28;1.63;;;;;;;28.41;36.86;100483.88;4969552;28;20290;-66
2022/06/12 11:44:13;;;;;;;3.25;1.65;;;;;;;28.72;34.20;100473.97;4978834;28;20207;-67
2022/06/12 11:46:51;;;;;;;4.07;1.75;;;;;;;29.26;34.00;100478.50;4967661;28;20183;-66
2022/06/12 11:49:31;;;;;;;5.00;1.40;;;;;;;29.44;32.65;100477.97;4975665;28;20575;-66
2022/06/12 11:52:15;;;;;;;4.10;1.70;;;;;;;29.23;31.11;100478.88;4979671;28;20249;-66
2022/06/12 11:55:14;;;;;;;3.50;1.70;;;;;;;28.60;33.22;100477.09;5000726;28;20304;-66
2022/06/12 11:57:42;;;;;;;3.05;1.42;;;;;;;28.21;35.30;100473.16;4988980;28;20188;-67
2022/06/12 12:00:15;;;;;;;6.65;1.48;;;;;;;28.40;34.87;100466.38;4978904;28;20198;-67
2022/06/12 12:02:43;;;;;;;5.10;2.00;;;;;;;28.54;35.76;100467.28;4975778;28;20187;-66